Time;durP1;ratioP1;P1;durP2;ratioP2;P2;SDS_P1;SDS_P2;PMS_P1;PMS_P2;Temp;Humidity;BMP_temperature;BMP_pressure;BME280_temperature;BME280_humidity;BME280_pressure;Samples;Min_cycle;Max_cycle;Signal;HPM_P1;HPM_P2
2022/03/10 00:02:08;;;;;;;4.18;1.80;;;19.90;49.30;;;;;;4546812;31;20583;-67
2022/03/10 00:04:35;;;;;;;4.25;1.55;;;19.90;49.30;;;;;;4546834;31;20142;-67
2022/03/10 00:07:02;;;;;;;4.32;1.63;;;19.80;49.30;;;;;;4547137;31;20135;-67
2022/03/10 00:09:29;;;;;;;2.90;1.40;;;19.80;49.30;;;;;;4546538;31;20143;-67
2022/03/10 00:11:55;;;;;;;5.15;1.70;;;19.80;50.20;;;;;;4547418;31;20576;-67
2022/03/10 00:14:21;;;;;;;5.40;1.70;;;19.80;49.40;;;;;;4546249;31;20654;-67
2022/03/10 00:16:47;;;;;;;4.97;1.52;;;19.80;49.40;;;;;;4547000;31;20131;-67
2022/03/10 00:19:12;;;;;;;3.80;1.40;;;19.70;49.30;;;;;;4546204;31;20119;-67
2022/03/10 00:21:39;;;;;;;6.40;1.70;;;19.70;49.30;;;;;;4532201;31;20196;-67
2022/03/10 00:24:06;;;;;;;4.50;1.25;;;19.70;49.30;;;;;;4546718;31;20146;-67
2022/03/10 00:26:32;;;;;;;4.10;1.45;;;19.70;49.30;;;;;;4546309;31;20127;-67
2022/03/10 00:28:58;;;;;;;3.67;1.58;;;19.70;49.40;;;;;;4547164;31;20123;-67
2022/03/10 00:31:24;;;;;;;3.03;1.42;;;19.60;49.30;;;;;;4545927;31;20296;-66
2022/03/10 00:33:50;;;;;;;3.53;1.38;;;19.60;49.40;;;;;;4546727;31;20127;-67
2022/03/10 00:36:15;;;;;;;4.07;1.60;;;19.60;49.40;;;;;;4546237;31;20139;-67
2022/03/10 00:38:42;;;;;;;3.50;1.45;;;19.60;49.40;;;;;;4546134;31;20134;-67
2022/03/10 00:41:09;;;;;;;3.15;1.45;;;19.60;49.50;;;;;;4546638;31;20139;-67
2022/03/10 00:43:35;;;;;;;4.10;1.50;;;19.60;49.50;;;;;;4546001;31;20138;-67
2022/03/10 00:46:02;;;;;;;7.47;2.22;;;19.50;49.40;;;;;;4546772;31;20131;-67
2022/03/10 00:48:28;;;;;;;2.55;1.40;;;19.50;49.40;;;;;;4531060;31;20160;-67
2022/03/10 00:50:54;;;;;;;3.53;1.50;;;19.50;49.40;;;;;;4546383;31;20286;-67
2022/03/10 00:53:20;;;;;;;5.75;1.70;;;19.50;49.50;;;;;;4545591;31;20263;-67
2022/03/10 00:55:46;;;;;;;2.78;1.33;;;19.50;49.50;;;;;;4546425;31;20265;-67
2022/03/10 00:58:12;;;;;;;4.45;1.40;;;19.40;49.50;;;;;;4546227;31;20116;-67
2022/03/10 01:00:37;;;;;;;3.20;1.60;;;19.40;49.50;;;;;;4545670;31;20592;-67
2022/03/10 01:03:05;;;;;;;4.15;1.65;;;19.40;49.50;;;;;;4546458;31;20119;-66
2022/03/10 01:05:31;;;;;;;4.65;1.50;;;19.40;49.50;;;;;;4545212;31;20131;-67
2022/03/10 01:07:58;;;;;;;3.35;1.80;;;19.40;49.50;;;;;;4546246;31;20162;-67
2022/03/10 01:10:24;;;;;;;5.60;1.38;;;19.40;49.50;;;;;;4545663;31;20119;-67
2022/03/10 01:12:50;;;;;;;4.93;1.70;;;19.40;49.60;;;;;;4531706;31;20566;-67
2022/03/10 01:15:27;;;;;;;4.43;1.48;;;19.40;49.50;;;;;;4545977;31;20131;-67
2022/03/10 01:17:53;;;;;;;5.25;1.85;;;19.40;49.60;;;;;;4545491;31;20123;-67
2022/03/10 01:20:23;;;;;;;5.05;1.60;;;19.30;49.60;;;;;;4546306;31;20106;-67
2022/03/10 01:22:50;;;;;;;3.53;1.20;;;19.30;49.50;;;;;;4544925;31;20139;-67
2022/03/10 01:25:18;;;;;;;4.35;1.50;;;19.30;49.60;;;;;;4546073;31;20115;-67
2022/03/10 01:27:45;;;;;;;2.85;1.48;;;19.30;49.60;;;;;;4545378;31;20196;-67
2022/03/10 01:30:12;;;;;;;4.57;1.40;;;19.30;49.60;;;;;;4545202;31;20128;-67
2022/03/10 01:32:38;;;;;;;2.80;1.20;;;19.30;49.60;;;;;;4545863;31;20134;-67
2022/03/10 01:35:05;;;;;;;2.63;1.40;;;19.30;49.60;;;;;;4545282;31;20127;-67
2022/03/10 01:37:32;;;;;;;3.90;1.60;;;19.20;49.50;;;;;;4546190;31;20183;-67
2022/03/10 01:39:58;;;;;;;4.13;1.40;;;19.20;49.50;;;;;;4545085;31;20174;-67
2022/03/10 01:42:24;;;;;;;2.20;1.25;;;19.20;49.60;;;;;;4545894;31;20270;-67
2022/03/10 01:44:54;;;;;;;4.15;1.42;;;19.20;49.60;;;;;;4545161;31;20131;-67
2022/03/10 01:47:20;;;;;;;3.80;1.50;;;19.20;49.60;;;;;;4544403;31;20119;-67
2022/03/10 01:49:46;;;;;;;3.53;1.58;;;19.20;49.60;;;;;;4529952;31;20131;-67
2022/03/10 01:52:12;;;;;;;3.50;1.23;;;19.20;49.60;;;;;;4543216;31;20172;-67
2022/03/10 01:54:41;;;;;;;3.92;1.75;;;19.20;49.70;;;;;;4516450;31;20240;-67
2022/03/10 01:57:06;;;;;;;3.50;1.50;;;19.20;49.60;;;;;;4543512;31;20146;-67
2022/03/10 01:59:32;;;;;;;2.97;1.63;;;19.10;49.60;;;;;;4544311;31;20119;-67
2022/03/10 02:01:59;;;;;;;2.70;1.40;;;19.20;49.70;;;;;;4544415;31;20192;-67
2022/03/10 02:04:25;;;;;;;1.98;1.13;;;19.10;49.60;;;;;;4544387;31;20157;-67
2022/03/10 02:06:52;;;;;;;3.70;1.48;;;19.10;49.70;;;;;;4544733;31;20519;-67
2022/03/10 02:12:04;;;;;;;3.33;1.45;;;19.10;49.70;;;;;;4544970;31;20162;-67
2022/03/10 02:17:22;;;;;;;4.35;1.50;;;19.00;49.70;;;;;;4532494;31;20135;-67
2022/03/10 02:19:53;;;;;;;3.78;1.25;;;19.00;49.70;;;;;;4544773;31;20190;-66
2022/03/10 02:22:20;;;;;;;3.67;1.42;;;19.00;49.70;;;;;;4543851;31;20197;-67
2022/03/10 02:24:48;;;;;;;2.85;1.23;;;19.00;49.70;;;;;;4544839;31;20196;-67
2022/03/10 02:27:24;;;;;;;3.25;1.20;;;19.00;49.70;;;;;;4544006;31;20289;-67
2022/03/10 02:30:01;;;;;;;3.08;1.23;;;19.00;49.70;;;;;;4544622;31;20556;-67
2022/03/10 02:32:28;;;;;;;2.40;1.50;;;19.00;49.70;;;;;;4544491;31;20143;-67
2022/03/10 02:34:54;;;;;;;3.78;1.48;;;18.90;49.70;;;;;;4543887;31;20534;-67
2022/03/10 02:37:21;;;;;;;3.55;1.52;;;18.90;49.70;;;;;;4545718;31;20196;-67
2022/03/10 02:39:47;;;;;;;4.72;1.20;;;18.90;49.70;;;;;;4544337;31;20186;-67
2022/03/10 02:42:13;;;;;;;2.70;1.40;;;18.90;49.70;;;;;;4548225;31;20123;-67
2022/03/10 02:44:44;;;;;;;3.08;1.42;;;18.90;49.70;;;;;;4547833;31;20204;-67
2022/03/10 02:47:10;;;;;;;2.28;1.60;;;18.90;50.70;;;;;;4548356;31;20134;-67
2022/03/10 02:49:37;;;;;;;2.92;1.30;;;18.90;49.70;;;;;;4547348;31;20158;-66
2022/03/10 02:52:03;;;;;;;2.72;1.40;;;18.90;49.70;;;;;;4546720;31;20298;-67
2022/03/10 02:54:30;;;;;;;1.77;1.10;;;18.80;49.70;;;;;;4547823;31;20143;-66
2022/03/10 02:56:57;;;;;;;3.10;1.88;;;18.80;49.70;;;;;;4545862;31;20171;-67
2022/03/10 02:59:23;;;;;;;3.00;1.63;;;18.80;49.70;;;;;;4547978;31;20546;-66
2022/03/10 03:01:49;;;;;;;3.92;1.40;;;18.80;49.70;;;;;;4547501;31;20127;-66
2022/03/10 03:04:15;;;;;;;1.80;1.20;;;18.80;49.80;;;;;;4548071;31;20146;-67
2022/03/10 03:06:41;;;;;;;2.60;1.15;;;18.80;49.70;;;;;;4546609;31;20127;-66
2022/03/10 03:09:07;;;;;;;2.63;1.08;;;18.80;49.80;;;;;;4531692;31;20145;-67
2022/03/10 03:11:33;;;;;;;2.15;1.27;;;18.80;49.80;;;;;;4546935;31;20134;-67
2022/03/10 03:14:01;;;;;;;2.50;1.52;;;18.80;49.80;;;;;;4546149;31;20124;-67
2022/03/10 03:16:27;;;;;;;2.10;1.23;;;18.80;49.80;;;;;;4548169;31;20132;-66
2022/03/10 03:18:53;;;;;;;2.92;1.60;;;18.70;49.80;;;;;;4547521;31;20285;-67
2022/03/10 03:21:21;;;;;;;2.92;1.30;;;18.70;49.80;;;;;;4546692;31;20201;-67
2022/03/10 03:23:47;;;;;;;1.90;1.05;;;18.70;49.80;;;;;;4546754;31;20273;-66
2022/03/10 03:26:14;;;;;;;3.33;1.52;;;18.70;49.80;;;;;;4546597;31;20127;-67
2022/03/10 03:28:40;;;;;;;2.00;1.20;;;18.70;49.90;;;;;;4547246;31;20149;-66
2022/03/10 03:31:06;;;;;;;2.42;1.35;;;18.60;49.80;;;;;;4546149;31;20116;-66
2022/03/10 03:33:33;;;;;;;2.92;1.23;;;18.60;49.90;;;;;;4547034;31;20135;-66
2022/03/10 03:35:59;;;;;;;4.22;1.42;;;18.60;49.90;;;;;;4546206;31;20134;-67
2022/03/10 03:38:25;;;;;;;1.90;1.20;;;18.60;49.90;;;;;;4532379;31;20127;-67
2022/03/10 03:40:50;;;;;;;1.55;1.17;;;18.60;49.90;;;;;;4546548;31;20164;-66
2022/03/10 03:43:16;;;;;;;3.42;1.60;;;18.60;49.90;;;;;;4544177;31;20119;-67
2022/03/10 03:45:42;;;;;;;2.17;1.17;;;18.60;49.90;;;;;;4546848;31;20131;-66
2022/03/10 03:48:08;;;;;;;2.15;1.40;;;18.50;49.90;;;;;;4531446;31;20257;-66
2022/03/10 03:50:34;;;;;;;2.22;1.33;;;18.60;49.90;;;;;;4546757;31;20255;-66
2022/03/10 03:53:00;;;;;;;2.85;1.27;;;18.60;49.90;;;;;;4545373;31;20123;-66
2022/03/10 03:55:26;;;;;;;1.60;1.15;;;18.50;49.90;;;;;;4544541;31;20140;-67
2022/03/10 03:57:52;;;;;;;2.38;1.30;;;18.50;49.90;;;;;;4546999;31;20163;-65
2022/03/10 04:00:18;;;;;;;2.42;1.02;;;18.50;49.90;;;;;;4547023;31;20127;-67
2022/03/10 04:02:45;;;;;;;1.35;1.20;;;18.50;50.00;;;;;;4532987;31;20668;-65
2022/03/10 04:05:12;;;;;;;3.15;1.10;;;18.50;50.00;;;;;;4546413;31;20124;-66
2022/03/10 04:07:42;;;;;;;2.60;1.05;;;18.50;50.10;;;;;;4547472;31;20192;-66
2022/03/10 04:10:08;;;;;;;2.05;1.20;;;18.50;51.00;;;;;;4546436;31;20132;-67
2022/03/10 04:12:36;;;;;;;2.25;1.20;;;18.40;50.10;;;;;;4547152;31;20468;-67
2022/03/10 04:15:03;;;;;;;4.85;1.10;;;18.40;50.10;;;;;;4546670;31;20135;-66
2022/03/10 04:17:29;;;;;;;2.03;1.25;;;18.40;50.10;;;;;;4532035;31;20123;-65
2022/03/10 04:19:55;;;;;;;2.30;1.20;;;18.40;50.10;;;;;;4547084;31;20147;-65
2022/03/10 04:22:21;;;;;;;2.65;1.23;;;18.40;50.00;;;;;;4546056;31;20328;-66
2022/03/10 04:24:47;;;;;;;1.77;1.20;;;18.40;50.10;;;;;;4532638;31;20193;-66
2022/03/10 04:27:14;;;;;;;2.13;1.10;;;18.40;50.20;;;;;;4545463;31;20501;-68
2022/03/10 04:29:40;;;;;;;2.30;1.10;;;18.40;50.20;;;;;;4546233;31;20128;-67
2022/03/10 04:32:08;;;;;;;3.40;1.38;;;18.40;50.20;;;;;;4545722;31;20130;-67
2022/03/10 04:34:34;;;;;;;2.35;1.23;;;18.40;50.20;;;;;;4545779;31;20150;-67
2022/03/10 04:37:00;;;;;;;1.98;1.10;;;18.40;50.20;;;;;;4546089;31;20139;-67
2022/03/10 04:39:26;;;;;;;1.90;1.00;;;18.40;50.20;;;;;;4545333;31;20261;-67
2022/03/10 04:41:52;;;;;;;2.20;1.00;;;18.40;50.20;;;;;;4546264;31;20139;-66
2022/03/10 04:44:18;;;;;;;2.90;1.55;;;18.30;50.10;;;;;;4545121;31;20122;-67
2022/03/10 04:46:44;;;;;;;1.98;1.02;;;18.30;50.20;;;;;;4545945;31;20131;-68
2022/03/10 04:49:10;;;;;;;2.15;1.17;;;18.30;50.20;;;;;;4545310;31;20120;-68
2022/03/10 04:51:35;;;;;;;2.13;1.42;;;18.30;50.20;;;;;;4545354;31;20135;-68
2022/03/10 04:54:01;;;;;;;2.00;1.13;;;18.30;50.20;;;;;;4545826;31;20138;-68
2022/03/10 04:56:27;;;;;;;2.03;1.20;;;18.30;50.20;;;;;;4544982;31;20119;-69
2022/03/10 04:58:53;;;;;;;2.15;1.10;;;18.30;50.20;;;;;;4545965;31;20136;-68
2022/03/10 05:01:19;;;;;;;2.22;1.20;;;18.30;50.20;;;;;;4544913;31;20197;-68
2022/03/10 05:03:44;;;;;;;1.65;1.15;;;18.30;50.30;;;;;;4545376;31;20127;-68
2022/03/10 05:06:10;;;;;;;1.15;1.00;;;18.20;50.30;;;;;;4544793;31;20122;-68
2022/03/10 05:08:36;;;;;;;3.97;1.20;;;18.20;50.20;;;;;;4545695;31;20224;-66
2022/03/10 05:11:02;;;;;;;5.53;1.10;;;18.30;50.50;;;;;;4546023;31;20111;-66
2022/03/10 05:13:28;;;;;;;1.98;0.98;;;18.20;50.40;;;;;;4545503;31;20290;-66
2022/03/10 05:15:54;;;;;;;1.88;1.15;;;18.30;50.50;;;;;;4531985;31;20135;-66
2022/03/10 05:18:20;;;;;;;5.07;1.15;;;18.20;50.40;;;;;;4545164;31;20321;-66
2022/03/10 05:20:46;;;;;;;1.83;1.15;;;18.20;50.40;;;;;;4546090;31;20234;-66
2022/03/10 05:23:12;;;;;;;1.13;1.02;;;18.20;50.50;;;;;;4545331;31;20220;-66
2022/03/10 05:25:40;;;;;;;2.10;1.00;;;18.20;50.50;;;;;;4545858;31;20123;-67
2022/03/10 05:28:13;;;;;;;2.20;1.10;;;18.20;50.50;;;;;;4545982;31;20150;-66
2022/03/10 05:30:39;;;;;;;1.73;1.05;;;18.20;50.50;;;;;;4545375;31;20566;-67
2022/03/10 05:33:05;;;;;;;1.50;1.30;;;18.10;50.40;;;;;;4546348;31;20536;-66
2022/03/10 05:35:31;;;;;;;2.53;1.10;;;18.10;50.50;;;;;;4544987;31;20523;-67
2022/03/10 05:37:57;;;;;;;1.83;1.00;;;18.10;50.50;;;;;;4531629;31;20135;-66
2022/03/10 05:40:23;;;;;;;2.13;1.10;;;18.10;50.50;;;;;;4545359;31;20127;-66
2022/03/10 05:42:52;;;;;;;1.35;1.00;;;18.00;50.50;;;;;;4545707;31;20579;-67
2022/03/10 05:45:20;;;;;;;1.55;1.13;;;18.00;50.50;;;;;;4531321;31;20185;-66
2022/03/10 05:47:50;;;;;;;1.70;1.00;;;18.00;50.50;;;;;;4544969;31;20236;-66
2022/03/10 05:50:17;;;;;;;1.17;0.90;;;18.00;50.50;;;;;;4546069;31;20146;-66
2022/03/10 05:52:45;;;;;;;1.55;1.02;;;18.00;50.50;;;;;;4544767;31;20135;-66
2022/03/10 05:55:12;;;;;;;2.58;1.05;;;18.00;50.50;;;;;;4545838;31;20135;-66
2022/03/10 05:57:38;;;;;;;3.55;1.05;;;18.00;50.50;;;;;;4545216;31;20127;-66
2022/03/10 06:00:05;;;;;;;1.58;0.85;;;18.00;50.50;;;;;;4545565;31;20116;-66
2022/03/10 06:02:31;;;;;;;1.50;1.00;;;17.90;50.40;;;;;;4545673;31;20124;-66
2022/03/10 06:05:00;;;;;;;1.65;1.00;;;17.90;50.50;;;;;;4544896;31;20111;-67
2022/03/10 06:07:27;;;;;;;1.58;1.10;;;17.90;50.50;;;;;;4545920;31;20175;-66
2022/03/10 06:09:54;;;;;;;1.00;0.90;;;17.90;50.40;;;;;;4545009;31;20269;-67
2022/03/10 06:12:26;;;;;;;2.13;1.35;;;17.90;50.40;;;;;;4545735;31;20203;-67
2022/03/10 06:14:56;;;;;;;1.67;0.90;;;17.90;50.40;;;;;;4545092;31;20143;-66
2022/03/10 06:17:23;;;;;;;1.42;1.00;;;17.90;50.50;;;;;;4548295;31;20128;-67
2022/03/10 06:19:49;;;;;;;1.65;0.90;;;17.90;50.50;;;;;;4548963;31;20124;-66
2022/03/10 06:22:19;;;;;;;2.03;1.13;;;17.90;50.50;;;;;;4547761;31;20136;-67
2022/03/10 06:24:45;;;;;;;1.58;1.10;;;17.80;50.50;;;;;;4549213;31;20240;-66
2022/03/10 06:27:16;;;;;;;1.40;1.05;;;17.80;50.50;;;;;;4548191;31;20534;-66
2022/03/10 06:29:43;;;;;;;1.73;1.00;;;17.90;50.50;;;;;;4548724;31;20140;-66
2022/03/10 06:32:09;;;;;;;1.70;1.10;;;17.80;50.50;;;;;;4548289;31;20150;-67
2022/03/10 06:34:37;;;;;;;1.70;1.23;;;17.90;50.50;;;;;;4533891;31;20119;-66
2022/03/10 06:37:04;;;;;;;1.33;0.90;;;17.80;50.50;;;;;;4548667;31;20139;-66
2022/03/10 06:39:30;;;;;;;1.55;1.17;;;17.80;50.50;;;;;;4547735;31;20123;-67
2022/03/10 06:41:56;;;;;;;1.60;0.98;;;17.80;50.50;;;;;;4548723;31;20127;-66
2022/03/10 06:44:22;;;;;;;2.40;1.02;;;17.80;50.50;;;;;;4547557;31;20194;-66
2022/03/10 06:46:48;;;;;;;1.40;0.95;;;17.80;50.50;;;;;;4548458;31;20261;-66
2022/03/10 06:49:13;;;;;;;1.27;0.90;;;17.80;50.50;;;;;;4547802;31;20196;-66
2022/03/10 06:51:39;;;;;;;1.52;1.00;;;17.70;50.40;;;;;;4547738;31;20162;-66
2022/03/10 06:54:05;;;;;;;1.13;1.00;;;17.70;50.40;;;;;;4533975;31;20141;-66
2022/03/10 06:56:31;;;;;;;1.23;1.00;;;17.80;50.50;;;;;;4547452;31;20116;-66
2022/03/10 06:58:57;;;;;;;1.73;1.02;;;17.70;50.50;;;;;;4548584;31;20179;-66
2022/03/10 07:01:25;;;;;;;1.80;1.15;;;17.70;50.40;;;;;;4547413;31;20131;-66
2022/03/10 07:03:57;;;;;;;1.08;0.90;;;17.70;50.50;;;;;;4548258;31;20265;-66
2022/03/10 07:06:23;;;;;;;1.42;0.90;;;17.70;50.50;;;;;;4520852;31;20150;-66
2022/03/10 07:08:50;;;;;;;1.17;0.95;;;17.70;50.50;;;;;;4547620;31;20143;-67
2022/03/10 07:11:16;;;;;;;1.08;0.90;;;17.70;50.50;;;;;;4548412;31;20899;-66
2022/03/10 07:13:42;;;;;;;1.30;1.00;;;17.70;50.50;;;;;;4547190;31;20119;-67
2022/03/10 07:16:09;;;;;;;1.60;1.20;;;17.70;50.50;;;;;;4548258;31;20138;-66
2022/03/10 07:18:34;;;;;;;2.33;0.98;;;17.60;50.40;;;;;;4547213;31;20124;-66
2022/03/10 07:21:02;;;;;;;1.02;0.90;;;17.70;50.50;;;;;;4547702;31;20133;-66
2022/03/10 07:23:38;;;;;;;2.78;1.02;;;17.60;50.50;;;;;;4547363;31;20204;-66
2022/03/10 07:26:04;;;;;;;1.15;1.00;;;17.70;50.50;;;;;;4547482;31;20128;-66
2022/03/10 07:28:31;;;;;;;1.45;1.13;;;17.70;50.50;;;;;;4547251;31;20142;-66
2022/03/10 07:30:57;;;;;;;2.70;1.25;;;17.60;50.50;;;;;;4532460;31;20144;-67
2022/03/10 07:33:23;;;;;;;1.70;1.05;;;17.60;50.50;;;;;;4547868;31;20134;-66
2022/03/10 07:35:49;;;;;;;1.70;1.05;;;17.60;50.40;;;;;;4546992;31;20261;-66
2022/03/10 07:38:15;;;;;;;1.48;1.00;;;17.60;50.40;;;;;;4547859;31;20115;-67
2022/03/10 07:40:40;;;;;;;1.77;0.98;;;17.60;50.40;;;;;;4547245;31;20158;-66
2022/03/10 07:43:06;;;;;;;1.10;0.95;;;17.60;50.40;;;;;;4532837;31;20139;-66
2022/03/10 07:45:33;;;;;;;1.08;0.77;;;17.70;51.40;;;;;;4547622;31;20135;-66
2022/03/10 07:47:58;;;;;;;1.50;1.00;;;17.60;50.30;;;;;;4546400;31;20120;-66
2022/03/10 07:50:24;;;;;;;2.00;1.00;;;17.60;50.40;;;;;;4547933;31;20217;-66
2022/03/10 07:52:50;;;;;;;1.88;1.00;;;17.70;50.40;;;;;;4546481;31;20220;-66
2022/03/10 07:55:16;;;;;;;1.45;1.05;;;17.60;50.40;;;;;;4547460;31;20492;-66
2022/03/10 07:57:42;;;;;;;1.48;0.95;;;17.60;50.40;;;;;;4546933;31;20142;-66
2022/03/10 08:00:09;;;;;;;1.75;1.00;;;17.60;50.40;;;;;;4547082;31;20128;-66
2022/03/10 08:02:36;;;;;;;1.08;0.82;;;17.60;50.40;;;;;;4547354;31;20144;-66
2022/03/10 08:05:02;;;;;;;2.70;1.15;;;17.60;50.40;;;;;;4531882;31;20485;-65
2022/03/10 08:07:32;;;;;;;4.50;2.67;;;17.60;50.40;;;;;;4547395;31;20147;-64
2022/03/10 08:09:59;;;;;;;6.38;4.10;;;17.60;49.80;;;;;;4546596;31;20131;-64
2022/03/10 08:12:29;;;;;;;6.07;4.90;;;17.60;48.70;;;;;;4519884;31;20119;-64
2022/03/10 08:14:55;;;;;;;6.05;5.18;;;17.60;47.80;;;;;;4546620;31;20139;-63
2022/03/10 08:17:21;;;;;;;6.13;5.43;;;17.60;47.00;;;;;;4546723;31;20628;-65
2022/03/10 08:19:47;;;;;;;6.38;4.53;;;17.60;46.80;;;;;;4547087;31;20171;-65
2022/03/10 08:22:15;;;;;;;5.63;4.50;;;17.60;47.00;;;;;;4545656;31;20658;-65
2022/03/10 08:24:42;;;;;;;5.78;4.80;;;17.60;47.10;;;;;;4546407;31;20159;-65
2022/03/10 08:27:08;;;;;;;5.32;4.47;;;17.60;47.10;;;;;;4543510;31;20171;-65
2022/03/10 08:29:34;;;;;;;6.55;4.28;;;17.60;47.00;;;;;;4546263;31;20270;-65
2022/03/10 08:32:03;;;;;;;5.35;4.07;;;17.70;47.10;;;;;;4543900;31;20131;-65
2022/03/10 08:34:29;;;;;;;5.95;3.80;;;17.70;47.10;;;;;;4546315;31;20139;-65
2022/03/10 08:36:54;;;;;;;6.63;3.67;;;17.80;47.20;;;;;;4546957;31;20139;-64
2022/03/10 08:39:20;;;;;;;10.65;5.53;;;17.80;47.10;;;;;;4545355;31;20122;-65
2022/03/10 08:41:46;;;;;;;8.93;5.40;;;17.90;46.40;;;;;;4546862;31;20128;-65
2022/03/10 08:44:12;;;;;;;7.40;4.72;;;17.90;46.00;;;;;;4545653;31;20139;-66
2022/03/10 08:46:39;;;;;;;8.52;4.07;;;18.00;45.60;;;;;;4546783;31;20116;-66
2022/03/10 08:49:04;;;;;;;4.97;4.05;;;18.20;45.50;;;;;;4545853;31;20649;-66
2022/03/10 08:51:30;;;;;;;6.13;4.07;;;18.30;45.30;;;;;;4546039;31;20546;-66
2022/03/10 08:53:57;;;;;;;4.43;3.50;;;18.40;45.20;;;;;;4546649;31;20261;-65
2022/03/10 08:56:22;;;;;;;4.25;3.15;;;18.50;45.10;;;;;;4545762;31;20146;-67
2022/03/10 08:58:48;;;;;;;6.35;3.40;;;18.70;45.00;;;;;;4546773;31;20124;-66
2022/03/10 09:01:14;;;;;;;3.40;3.03;;;18.80;44.90;;;;;;4531099;31;20142;-66
2022/03/10 09:03:40;;;;;;;4.43;3.50;;;18.90;44.80;;;;;;4546414;31;20176;-66
2022/03/10 09:06:07;;;;;;;6.05;3.00;;;19.00;44.60;;;;;;4545662;31;20130;-66
2022/03/10 09:08:33;;;;;;;3.40;2.45;;;19.10;44.40;;;;;;4531801;31;20188;-66
2022/03/10 09:10:59;;;;;;;4.50;2.90;;;19.20;44.30;;;;;;4546105;31;20133;-66
2022/03/10 09:13:26;;;;;;;5.95;3.20;;;19.30;44.10;;;;;;4545513;31;20159;-66
2022/03/10 09:15:51;;;;;;;3.38;2.50;;;19.40;43.90;;;;;;4546076;31;20132;-65
2022/03/10 09:18:17;;;;;;;4.28;2.60;;;19.50;43.70;;;;;;4545075;31;20126;-65
2022/03/10 09:20:43;;;;;;;5.25;2.53;;;19.70;43.60;;;;;;4545460;31;20131;-65
2022/03/10 09:23:09;;;;;;;3.80;2.50;;;19.80;43.50;;;;;;4544645;31;20535;-65
2022/03/10 09:25:35;;;;;;;4.70;2.53;;;19.80;43.30;;;;;;4545457;31;20151;-65
2022/03/10 09:28:01;;;;;;;4.20;2.03;;;20.00;43.20;;;;;;4544789;31;20154;-64
2022/03/10 09:30:27;;;;;;;3.53;2.05;;;20.10;43.20;;;;;;4544803;31;20142;-65
2022/03/10 09:32:57;;;;;;;3.00;2.15;;;20.20;43.10;;;;;;4545476;31;20135;-66
2022/03/10 09:35:24;;;;;;;3.33;1.92;;;20.30;43.00;;;;;;4544200;31;20127;-65
2022/03/10 09:37:52;;;;;;;2.83;1.95;;;20.40;42.90;;;;;;4531000;31;20129;-65
2022/03/10 09:40:18;;;;;;;4.68;2.00;;;20.60;42.80;;;;;;4544612;31;20127;-65
2022/03/10 09:42:47;;;;;;;3.63;2.00;;;20.60;42.70;;;;;;4545164;31;20248;-66
2022/03/10 09:45:14;;;;;;;2.70;1.88;;;20.80;42.60;;;;;;4530630;31;20119;-65
2022/03/10 09:47:42;;;;;;;2.88;1.67;;;20.90;42.40;;;;;;4544359;31;20163;-65
2022/03/10 09:50:13;;;;;;;2.40;1.85;;;20.90;42.30;;;;;;4544596;31;20143;-65
2022/03/10 09:52:41;;;;;;;2.10;1.42;;;21.00;42.20;;;;;;4543707;31;20179;-65
2022/03/10 09:55:08;;;;;;;2.95;1.60;;;21.10;42.10;;;;;;4530492;31;20194;-65
2022/03/10 09:57:37;;;;;;;4.30;1.75;;;21.20;42.00;;;;;;4544879;31;20150;-65
2022/03/10 10:00:05;;;;;;;3.47;1.83;;;21.20;41.90;;;;;;4545325;31;20142;-65
2022/03/10 10:02:31;;;;;;;5.13;2.65;;;21.30;41.80;;;;;;4545660;31;20132;-64
2022/03/10 10:04:57;;;;;;;5.15;3.92;;;21.30;41.50;;;;;;4544694;31;20164;-64
2022/03/10 10:07:28;;;;;;;5.80;4.65;;;21.30;40.60;;;;;;4545888;31;20239;-64
2022/03/10 10:09:57;;;;;;;5.35;4.80;;;21.30;39.70;;;;;;4545088;31;20171;-64
2022/03/10 10:12:28;;;;;;;10.10;6.10;;;21.20;38.90;;;;;;4545580;31;20124;-64
2022/03/10 10:14:58;;;;;;;8.57;6.13;;;21.10;38.30;;;;;;4545336;31;20720;-64
2022/03/10 10:17:32;;;;;;;8.85;6.47;;;21.00;37.80;;;;;;4545555;31;20120;-64
2022/03/10 10:20:01;;;;;;;10.82;6.38;;;20.90;37.70;;;;;;4545859;31;20119;-64
2022/03/10 10:22:29;;;;;;;10.27;6.70;;;20.80;37.60;;;;;;4544317;31;20131;-64
2022/03/10 10:25:02;;;;;;;10.93;7.85;;;20.60;37.20;;;;;;4545499;31;20172;-65
2022/03/10 10:27:33;;;;;;;10.38;7.30;;;20.60;37.20;;;;;;4545008;31;20188;-65
2022/03/10 10:30:01;;;;;;;11.13;8.07;;;20.40;37.00;;;;;;4545319;31;20143;-65
2022/03/10 10:32:34;;;;;;;10.57;7.78;;;20.30;37.00;;;;;;4544916;31;20145;-66
2022/03/10 10:35:07;;;;;;;;;;;20.20;36.80;;;;;;4544443;31;20127;-66
2022/03/10 10:37:35;;;;;;;11.82;7.95;;;20.10;36.90;;;;;;4544889;31;20024;-66
2022/03/10 10:40:02;;;;;;;10.77;8.10;;;20.00;37.50;;;;;;4529755;31;20576;-65
2022/03/10 10:42:30;;;;;;;9.05;7.40;;;19.90;37.40;;;;;;4545377;31;20138;-63
2022/03/10 10:44:58;;;;;;;10.38;8.10;;;19.80;37.40;;;;;;4544491;31;20123;-65
2022/03/10 10:47:28;;;;;;;12.05;8.23;;;19.70;37.60;;;;;;4544566;31;20127;-65
2022/03/10 10:50:00;;;;;;;10.57;7.65;;;19.60;38.70;;;;;;4545161;31;20240;-64
2022/03/10 10:52:39;;;;;;;10.57;7.70;;;19.50;37.80;;;;;;4542052;31;20132;-65
2022/03/10 10:55:10;;;;;;;9.85;7.88;;;19.50;37.80;;;;;;4544650;31;20184;-65
2022/03/10 10:57:38;;;;;;;11.38;7.90;;;19.40;38.20;;;;;;4528831;31;20128;-64
2022/03/10 11:00:08;;;;;;;9.98;7.93;;;19.40;38.40;;;;;;4544799;31;20759;-64
2022/03/10 11:02:37;;;;;;;10.65;8.30;;;19.30;38.30;;;;;;4546892;31;20143;-65
2022/03/10 11:05:03;;;;;;;11.98;7.65;;;19.20;38.20;;;;;;4547137;31;20146;-65
2022/03/10 11:07:32;;;;;;;11.50;7.85;;;19.20;38.20;;;;;;4533382;31;20547;-64
2022/03/10 11:09:57;;;;;;;10.82;7.40;;;19.20;38.30;;;;;;4547272;31;20132;-64
2022/03/10 11:12:23;;;;;;;12.60;7.88;;;19.10;38.30;;;;;;4548226;31;20177;-64
2022/03/10 11:14:49;;;;;;;11.43;7.93;;;19.10;38.30;;;;;;4547676;31;20146;-66
2022/03/10 11:17:18;;;;;;;11.98;8.20;;;19.00;38.10;;;;;;4547326;31;20135;-64
2022/03/10 11:19:46;;;;;;;10.15;7.88;;;19.00;39.10;;;;;;4547972;31;20192;-64
2022/03/10 11:22:34;;;;;;;10.02;8.02;;;18.90;38.20;;;;;;4546740;31;20127;-66
2022/03/10 11:25:06;;;;;;;12.02;8.05;;;18.90;38.00;;;;;;4547870;31;20258;-65
2022/03/10 11:27:46;;;;;;;12.85;7.97;;;18.90;38.30;;;;;;4547430;31;20578;-64
2022/03/10 11:30:13;;;;;;;10.93;7.78;;;18.80;38.20;;;;;;4545693;31;20244;-64
2022/03/10 11:32:38;;;;;;;12.10;7.93;;;18.80;38.40;;;;;;4544899;31;20235;-65
2022/03/10 11:35:06;;;;;;;11.18;8.10;;;18.80;38.40;;;;;;4545103;31;20127;-65
2022/03/10 11:37:37;;;;;;;11.80;8.20;;;18.80;38.40;;;;;;4546297;31;20144;-64
2022/03/10 11:40:05;;;;;;;12.52;8.80;;;18.80;38.30;;;;;;4546314;31;20132;-67
2022/03/10 11:42:34;;;;;;;12.23;8.73;;;18.70;38.10;;;;;;4546764;31;20146;-65
2022/03/10 11:45:20;;;;;;;10.45;8.13;;;18.70;38.10;;;;;;4545736;31;20146;-64
2022/03/10 11:47:47;;;;;;;13.20;8.85;;;18.70;38.00;;;;;;4545504;31;20123;-64
2022/03/10 11:50:22;;;;;;;11.80;8.95;;;18.70;38.30;;;;;;4546599;31;20120;-65
2022/03/10 11:53:06;;;;;;;13.02;8.82;;;18.70;38.10;;;;;;4544733;31;20149;-65
2022/03/10 11:55:46;;;;;;;;;;;18.60;38.10;;;;;;4532365;31;20129;-64
2022/03/10 11:58:13;;;;;;;11.57;8.40;;;18.60;38.30;;;;;;4546386;31;20467;-66
2022/03/10 12:00:39;;;;;;;11.85;8.80;;;18.60;38.60;;;;;;4545430;31;20135;-65
2022/03/10 12:03:06;;;;;;;12.20;8.07;;;18.60;38.60;;;;;;4537061;31;20136;-64
2022/03/10 12:05:55;;;;;;;14.35;9.13;;;18.60;38.60;;;;;;4517215;31;20159;-66
2022/03/10 12:08:22;;;;;;;11.73;9.00;;;18.60;38.40;;;;;;4544065;31;20116;-69
2022/03/10 12:10:48;;;;;;;14.43;8.57;;;18.60;38.60;;;;;;4546028;31;20123;-64
2022/03/10 12:13:22;;;;;;;12.20;8.52;;;18.60;38.60;;;;;;4545212;31;20131;-65
2022/03/10 12:15:49;;;;;;;12.57;8.60;;;18.60;38.50;;;;;;4546205;31;20188;-64
2022/03/10 12:18:17;;;;;;;9.55;7.93;;;18.60;38.70;;;;;;4545441;31;20116;-65
2022/03/10 12:20:45;;;;;;;9.98;8.40;;;18.60;38.70;;;;;;4546455;31;20163;-64
2022/03/10 12:23:13;;;;;;;11.32;8.30;;;18.50;38.70;;;;;;4543317;31;20193;-63
2022/03/10 12:25:44;;;;;;;12.98;8.30;;;18.50;38.70;;;;;;4546007;31;20269;-63
2022/03/10 12:28:19;;;;;;;11.18;8.38;;;18.50;38.60;;;;;;4546129;31;20135;-63
2022/03/10 12:30:48;;;;;;;11.85;8.77;;;18.50;38.60;;;;;;4545532;31;20154;-64
2022/03/10 12:33:13;;;;;;;11.63;8.55;;;18.50;38.60;;;;;;4544885;31;20147;-64
2022/03/10 12:35:41;;;;;;;13.48;8.38;;;18.40;38.60;;;;;;4543721;31;20221;-65
2022/03/10 12:38:08;;;;;;;13.95;8.48;;;18.50;38.60;;;;;;4546792;31;20134;-64
2022/03/10 12:40:37;;;;;;;14.07;9.02;;;18.50;38.60;;;;;;4546319;31;20249;-65
2022/03/10 12:43:08;;;;;;;12.05;8.85;;;18.40;38.50;;;;;;4546235;31;20142;-65
2022/03/10 12:45:46;;;;;;;12.93;8.82;;;18.50;38.50;;;;;;4546880;31;20150;-66
2022/03/10 12:48:35;;;;;;;13.00;9.60;;;18.40;38.30;;;;;;4544990;31;20178;-65
2022/03/10 12:51:01;;;;;;;15.90;9.77;;;18.40;38.20;;;;;;4545868;31;20146;-66
2022/03/10 12:53:32;;;;;;;15.48;8.85;;;18.40;38.20;;;;;;4545828;31;20124;-66